sensor_id;sensor_type;location;lat;lon;timestamp;P1;durP1;ratioP1;P2;durP2;ratioP2
31978;SDS011;18502;43.574;1.276;2023-08-20T00:00:40;14.20;;;6.18;;
31978;SDS011;18502;43.574;1.276;2023-08-20T00:03:11;11.35;;;6.53;;
31978;SDS011;18502;43.574;1.276;2023-08-20T00:05:38;13.05;;;6.72;;
31978;SDS011;18502;43.574;1.276;2023-08-20T00:08:05;12.13;;;6.43;;
31978;SDS011;18502;43.574;1.276;2023-08-20T00:10:31;11.00;;;6.32;;
31978;SDS011;18502;43.574;1.276;2023-08-20T00:12:57;12.88;;;5.88;;
31978;SDS011;18502;43.574;1.276;2023-08-20T00:15:23;15.73;;;6.65;;
31978;SDS011;18502;43.574;1.276;2023-08-20T00:17:52;16.33;;;6.70;;
31978;SDS011;18502;43.574;1.276;2023-08-20T00:20:19;12.43;;;6.55;;
31978;SDS011;18502;43.574;1.276;2023-08-20T00:22:45;14.13;;;6.25;;
31978;SDS011;18502;43.574;1.276;2023-08-20T00:25:14;14.57;;;6.70;;
31978;SDS011;18502;43.574;1.276;2023-08-20T00:27:41;8.55;;;6.47;;
31978;SDS011;18502;43.574;1.276;2023-08-20T00:30:07;11.88;;;6.57;;
31978;SDS011;18502;43.574;1.276;2023-08-20T00:32:35;12.90;;;6.40;;
31978;SDS011;18502;43.574;1.276;2023-08-20T00:35:01;12.95;;;6.70;;
31978;SDS011;18502;43.574;1.276;2023-08-20T00:37:27;14.73;;;6.57;;
31978;SDS011;18502;43.574;1.276;2023-08-20T00:39:53;10.57;;;6.40;;
31978;SDS011;18502;43.574;1.276;2023-08-20T00:42:19;10.55;;;6.30;;
31978;SDS011;18502;43.574;1.276;2023-08-20T00:44:45;12.68;;;6.20;;
31978;SDS011;18502;43.574;1.276;2023-08-20T00:47:11;13.57;;;6.93;;
31978;SDS011;18502;43.574;1.276;2023-08-20T00:49:38;12.50;;;6.80;;
31978;SDS011;18502;43.574;1.276;2023-08-20T00:52:05;13.75;;;6.80;;
31978;SDS011;18502;43.574;1.276;2023-08-20T00:54:33;11.27;;;6.45;;
31978;SDS011;18502;43.574;1.276;2023-08-20T00:56:59;9.45;;;6.38;;
31978;SDS011;18502;43.574;1.276;2023-08-20T00:59:27;14.00;;;7.05;;
31978;SDS011;18502;43.574;1.276;2023-08-20T01:01:53;15.07;;;7.50;;
31978;SDS011;18502;43.574;1.276;2023-08-20T01:04:19;13.18;;;6.90;;
31978;SDS011;18502;43.574;1.276;2023-08-20T01:12:06;12.05;;;6.65;;
31978;SDS011;18502;43.574;1.276;2023-08-20T01:14:31;11.85;;;7.38;;
31978;SDS011;18502;43.574;1.276;2023-08-20T01:16:57;10.13;;;6.72;;
31978;SDS011;18502;43.574;1.276;2023-08-20T01:19:23;12.43;;;6.85;;
31978;SDS011;18502;43.574;1.276;2023-08-20T01:22:04;14.02;;;7.13;;
31978;SDS011;18502;43.574;1.276;2023-08-20T01:27:43;9.48;;;6.78;;
31978;SDS011;18502;43.574;1.276;2023-08-20T01:30:33;11.75;;;6.68;;
31978;SDS011;18502;43.574;1.276;2023-08-20T01:33:00;10.77;;;7.05;;
31978;SDS011;18502;43.574;1.276;2023-08-20T01:35:26;13.68;;;7.03;;
31978;SDS011;18502;43.574;1.276;2023-08-20T01:37:52;12.15;;;7.28;;
31978;SDS011;18502;43.574;1.276;2023-08-20T01:40:17;11.82;;;6.80;;
31978;SDS011;18502;43.574;1.276;2023-08-20T01:42:43;15.27;;;7.57;;
31978;SDS011;18502;43.574;1.276;2023-08-20T01:45:09;13.95;;;7.15;;
31978;SDS011;18502;43.574;1.276;2023-08-20T01:47:35;11.88;;;6.90;;
31978;SDS011;18502;43.574;1.276;2023-08-20T01:50:01;12.15;;;7.35;;
31978;SDS011;18502;43.574;1.276;2023-08-20T01:52:27;14.85;;;7.40;;
31978;SDS011;18502;43.574;1.276;2023-08-20T01:54:54;12.05;;;7.47;;
31978;SDS011;18502;43.574;1.276;2023-08-20T01:57:20;14.27;;;7.40;;
31978;SDS011;18502;43.574;1.276;2023-08-20T01:59:47;14.57;;;7.30;;
31978;SDS011;18502;43.574;1.276;2023-08-20T02:02:12;9.30;;;5.93;;
31978;SDS011;18502;43.574;1.276;2023-08-20T02:04:38;10.25;;;6.70;;
31978;SDS011;18502;43.574;1.276;2023-08-20T02:07:04;15.70;;;6.85;;
31978;SDS011;18502;43.574;1.276;2023-08-20T02:09:30;10.75;;;6.18;;
31978;SDS011;18502;43.574;1.276;2023-08-20T02:11:55;9.07;;;6.20;;
31978;SDS011;18502;43.574;1.276;2023-08-20T02:14:21;13.30;;;6.55;;
31978;SDS011;18502;43.574;1.276;2023-08-20T02:16:47;9.40;;;6.60;;
31978;SDS011;18502;43.574;1.276;2023-08-20T02:19:12;9.25;;;6.63;;
31978;SDS011;18502;43.574;1.276;2023-08-20T02:21:39;11.95;;;6.72;;
31978;SDS011;18502;43.574;1.276;2023-08-20T02:24:05;13.85;;;6.70;;
31978;SDS011;18502;43.574;1.276;2023-08-20T02:26:31;8.75;;;6.55;;
31978;SDS011;18502;43.574;1.276;2023-08-20T02:28:57;11.15;;;7.43;;
31978;SDS011;18502;43.574;1.276;2023-08-20T02:31:23;7.85;;;6.43;;
31978;SDS011;18502;43.574;1.276;2023-08-20T02:33:49;11.10;;;6.85;;
31978;SDS011;18502;43.574;1.276;2023-08-20T02:36:14;12.20;;;7.30;;
31978;SDS011;18502;43.574;1.276;2023-08-20T02:38:40;12.52;;;7.05;;
31978;SDS011;18502;43.574;1.276;2023-08-20T02:41:06;11.82;;;6.38;;
31978;SDS011;18502;43.574;1.276;2023-08-20T02:43:31;10.10;;;6.45;;
31978;SDS011;18502;43.574;1.276;2023-08-20T02:45:57;12.77;;;6.72;;
31978;SDS011;18502;43.574;1.276;2023-08-20T02:48:23;11.65;;;6.65;;
31978;SDS011;18502;43.574;1.276;2023-08-20T02:50:54;11.52;;;6.80;;
31978;SDS011;18502;43.574;1.276;2023-08-20T02:53:20;11.65;;;7.53;;
31978;SDS011;18502;43.574;1.276;2023-08-20T02:55:46;12.98;;;7.03;;
31978;SDS011;18502;43.574;1.276;2023-08-20T02:58:12;14.75;;;7.82;;
31978;SDS011;18502;43.574;1.276;2023-08-20T03:00:38;9.30;;;6.72;;
31978;SDS011;18502;43.574;1.276;2023-08-20T03:03:04;9.02;;;7.00;;
31978;SDS011;18502;43.574;1.276;2023-08-20T03:05:32;10.82;;;7.20;;
31978;SDS011;18502;43.574;1.276;2023-08-20T03:07:58;8.30;;;6.40;;
31978;SDS011;18502;43.574;1.276;2023-08-20T03:10:24;10.82;;;7.35;;
31978;SDS011;18502;43.574;1.276;2023-08-20T03:12:50;13.70;;;7.07;;
31978;SDS011;18502;43.574;1.276;2023-08-20T03:15:16;12.02;;;7.25;;
31978;SDS011;18502;43.574;1.276;2023-08-20T03:17:42;9.32;;;6.72;;
31978;SDS011;18502;43.574;1.276;2023-08-20T03:20:08;9.65;;;7.03;;
31978;SDS011;18502;43.574;1.276;2023-08-20T03:22:35;10.05;;;6.60;;
31978;SDS011;18502;43.574;1.276;2023-08-20T03:25:03;10.80;;;7.05;;
31978;SDS011;18502;43.574;1.276;2023-08-20T03:27:29;9.27;;;7.43;;
31978;SDS011;18502;43.574;1.276;2023-08-20T03:29:55;13.90;;;8.45;;
31978;SDS011;18502;43.574;1.276;2023-08-20T03:32:21;14.38;;;7.82;;
31978;SDS011;18502;43.574;1.276;2023-08-20T03:34:46;14.45;;;7.65;;
31978;SDS011;18502;43.574;1.276;2023-08-20T03:37:12;15.85;;;8.57;;
31978;SDS011;18502;43.574;1.276;2023-08-20T03:39:38;11.50;;;8.65;;
31978;SDS011;18502;43.574;1.276;2023-08-20T03:42:03;12.15;;;8.55;;
31978;SDS011;18502;43.574;1.276;2023-08-20T03:44:30;12.13;;;9.07;;
31978;SDS011;18502;43.574;1.276;2023-08-20T03:46:56;12.02;;;8.27;;
31978;SDS011;18502;43.574;1.276;2023-08-20T03:49:21;12.73;;;9.27;;
31978;SDS011;18502;43.574;1.276;2023-08-20T03:51:47;14.07;;;7.90;;
31978;SDS011;18502;43.574;1.276;2023-08-20T03:54:13;10.77;;;7.03;;
31978;SDS011;18502;43.574;1.276;2023-08-20T03:56:38;11.90;;;7.43;;
31978;SDS011;18502;43.574;1.276;2023-08-20T03:59:04;11.15;;;7.68;;
31978;SDS011;18502;43.574;1.276;2023-08-20T04:01:30;11.85;;;7.65;;
31978;SDS011;18502;43.574;1.276;2023-08-20T04:03:56;10.65;;;7.75;;
31978;SDS011;18502;43.574;1.276;2023-08-20T04:06:22;11.95;;;8.20;;
31978;SDS011;18502;43.574;1.276;2023-08-20T04:08:48;14.48;;;9.27;;
31978;SDS011;18502;43.574;1.276;2023-08-20T04:11:14;16.95;;;9.20;;
31978;SDS011;18502;43.574;1.276;2023-08-20T04:13:39;12.25;;;8.77;;
31978;SDS011;18502;43.574;1.276;2023-08-20T04:16:07;11.02;;;8.18;;
31978;SDS011;18502;43.574;1.276;2023-08-20T04:18:34;14.50;;;8.18;;
31978;SDS011;18502;43.574;1.276;2023-08-20T04:20:59;13.60;;;9.15;;
31978;SDS011;18502;43.574;1.276;2023-08-20T04:23:25;12.65;;;8.30;;
31978;SDS011;18502;43.574;1.276;2023-08-20T04:25:51;12.65;;;8.88;;
31978;SDS011;18502;43.574;1.276;2023-08-20T04:28:17;13.02;;;8.07;;
31978;SDS011;18502;43.574;1.276;2023-08-20T04:30:43;14.40;;;8.15;;
31978;SDS011;18502;43.574;1.276;2023-08-20T04:33:09;13.77;;;8.70;;
31978;SDS011;18502;43.574;1.276;2023-08-20T04:35:34;14.27;;;8.88;;
31978;SDS011;18502;43.574;1.276;2023-08-20T04:38:01;16.35;;;8.25;;
31978;SDS011;18502;43.574;1.276;2023-08-20T04:40:27;15.00;;;8.73;;
31978;SDS011;18502;43.574;1.276;2023-08-20T04:42:53;12.50;;;8.60;;
31978;SDS011;18502;43.574;1.276;2023-08-20T04:45:18;12.45;;;8.30;;
31978;SDS011;18502;43.574;1.276;2023-08-20T04:47:45;15.32;;;8.10;;
31978;SDS011;18502;43.574;1.276;2023-08-20T04:50:11;12.50;;;8.40;;
31978;SDS011;18502;43.574;1.276;2023-08-20T04:52:37;13.02;;;8.60;;
31978;SDS011;18502;43.574;1.276;2023-08-20T04:55:03;12.55;;;8.40;;
31978;SDS011;18502;43.574;1.276;2023-08-20T04:57:29;15.63;;;8.65;;
31978;SDS011;18502;43.574;1.276;2023-08-20T04:59:54;10.70;;;8.43;;
31978;SDS011;18502;43.574;1.276;2023-08-20T05:02:20;12.63;;;8.38;;
31978;SDS011;18502;43.574;1.276;2023-08-20T05:04:46;16.77;;;8.95;;
31978;SDS011;18502;43.574;1.276;2023-08-20T05:07:11;15.57;;;8.68;;
31978;SDS011;18502;43.574;1.276;2023-08-20T05:09:37;12.52;;;8.75;;
31978;SDS011;18502;43.574;1.276;2023-08-20T05:12:03;11.23;;;8.52;;
31978;SDS011;18502;43.574;1.276;2023-08-20T05:14:29;16.20;;;9.15;;
31978;SDS011;18502;43.574;1.276;2023-08-20T05:16:56;22.25;;;10.75;;
31978;SDS011;18502;43.574;1.276;2023-08-20T05:19:21;11.40;;;8.73;;
31978;SDS011;18502;43.574;1.276;2023-08-20T05:21:47;18.52;;;10.35;;
31978;SDS011;18502;43.574;1.276;2023-08-20T05:24:13;11.52;;;9.15;;
31978;SDS011;18502;43.574;1.276;2023-08-20T05:26:38;20.77;;;9.48;;
31978;SDS011;18502;43.574;1.276;2023-08-20T05:29:04;18.00;;;10.85;;
31978;SDS011;18502;43.574;1.276;2023-08-20T05:31:30;16.45;;;9.70;;
31978;SDS011;18502;43.574;1.276;2023-08-20T05:33:55;15.25;;;10.52;;
31978;SDS011;18502;43.574;1.276;2023-08-20T05:36:21;16.02;;;10.65;;
31978;SDS011;18502;43.574;1.276;2023-08-20T05:38:48;12.05;;;9.88;;
31978;SDS011;18502;43.574;1.276;2023-08-20T05:41:13;13.70;;;9.90;;
31978;SDS011;18502;43.574;1.276;2023-08-20T05:43:39;18.15;;;9.85;;
31978;SDS011;18502;43.574;1.276;2023-08-20T05:46:04;17.20;;;9.63;;
31978;SDS011;18502;43.574;1.276;2023-08-20T05:48:30;15.27;;;10.52;;
31978;SDS011;18502;43.574;1.276;2023-08-20T05:50:56;16.52;;;10.25;;
31978;SDS011;18502;43.574;1.276;2023-08-20T05:53:22;17.52;;;9.85;;
31978;SDS011;18502;43.574;1.276;2023-08-20T05:55:48;14.82;;;10.02;;
31978;SDS011;18502;43.574;1.276;2023-08-20T05:58:14;15.48;;;9.70;;
31978;SDS011;18502;43.574;1.276;2023-08-20T06:00:39;16.17;;;8.98;;
31978;SDS011;18502;43.574;1.276;2023-08-20T06:03:05;12.95;;;8.85;;
31978;SDS011;18502;43.574;1.276;2023-08-20T06:05:32;12.93;;;8.80;;
31978;SDS011;18502;43.574;1.276;2023-08-20T06:07:58;14.40;;;7.90;;
31978;SDS011;18502;43.574;1.276;2023-08-20T06:10:24;11.75;;;7.38;;
31978;SDS011;18502;43.574;1.276;2023-08-20T06:12:50;18.23;;;8.02;;
31978;SDS011;18502;43.574;1.276;2023-08-20T06:15:16;10.00;;;6.60;;
31978;SDS011;18502;43.574;1.276;2023-08-20T06:17:41;14.13;;;7.70;;
31978;SDS011;18502;43.574;1.276;2023-08-20T06:20:07;9.90;;;6.88;;
31978;SDS011;18502;43.574;1.276;2023-08-20T06:22:33;9.98;;;6.47;;
31978;SDS011;18502;43.574;1.276;2023-08-20T06:24:59;13.60;;;7.15;;
31978;SDS011;18502;43.574;1.276;2023-08-20T06:27:25;11.23;;;6.10;;
31978;SDS011;18502;43.574;1.276;2023-08-20T06:29:51;11.43;;;6.68;;
31978;SDS011;18502;43.574;1.276;2023-08-20T06:32:17;9.35;;;5.97;;
31978;SDS011;18502;43.574;1.276;2023-08-20T06:34:42;9.93;;;6.38;;
31978;SDS011;18502;43.574;1.276;2023-08-20T06:37:08;8.85;;;5.85;;
31978;SDS011;18502;43.574;1.276;2023-08-20T06:39:34;10.73;;;6.30;;
31978;SDS011;18502;43.574;1.276;2023-08-20T06:41:59;13.32;;;6.35;;
31978;SDS011;18502;43.574;1.276;2023-08-20T06:44:25;10.23;;;6.85;;
31978;SDS011;18502;43.574;1.276;2023-08-20T06:46:51;9.95;;;6.15;;
31978;SDS011;18502;43.574;1.276;2023-08-20T06:49:17;8.63;;;5.82;;
31978;SDS011;18502;43.574;1.276;2023-08-20T06:51:42;9.75;;;5.90;;
31978;SDS011;18502;43.574;1.276;2023-08-20T06:54:08;11.95;;;6.07;;
31978;SDS011;18502;43.574;1.276;2023-08-20T06:56:34;9.02;;;5.85;;
31978;SDS011;18502;43.574;1.276;2023-08-20T06:59:00;9.25;;;5.60;;
31978;SDS011;18502;43.574;1.276;2023-08-20T07:01:28;9.98;;;5.80;;
31978;SDS011;18502;43.574;1.276;2023-08-20T07:03:53;17.33;;;6.03;;
31978;SDS011;18502;43.574;1.276;2023-08-20T07:06:19;10.27;;;5.43;;
31978;SDS011;18502;43.574;1.276;2023-08-20T07:08:45;6.75;;;4.90;;
31978;SDS011;18502;43.574;1.276;2023-08-20T07:11:11;8.95;;;4.70;;
31978;SDS011;18502;43.574;1.276;2023-08-20T07:13:36;8.45;;;5.00;;
31978;SDS011;18502;43.574;1.276;2023-08-20T07:16:02;8.25;;;4.85;;
31978;SDS011;18502;43.574;1.276;2023-08-20T07:18:28;10.13;;;5.43;;
31978;SDS011;18502;43.574;1.276;2023-08-20T07:20:54;12.63;;;4.53;;
31978;SDS011;18502;43.574;1.276;2023-08-20T07:23:21;11.98;;;5.22;;
31978;SDS011;18502;43.574;1.276;2023-08-20T07:25:47;8.68;;;4.57;;
31978;SDS011;18502;43.574;1.276;2023-08-20T07:28:13;6.55;;;4.30;;
31978;SDS011;18502;43.574;1.276;2023-08-20T07:30:39;6.80;;;4.95;;
31978;SDS011;18502;43.574;1.276;2023-08-20T07:33:06;9.90;;;4.70;;
31978;SDS011;18502;43.574;1.276;2023-08-20T07:35:32;17.00;;;4.70;;
31978;SDS011;18502;43.574;1.276;2023-08-20T07:38:00;10.32;;;5.43;;
31978;SDS011;18502;43.574;1.276;2023-08-20T07:40:25;14.90;;;5.63;;
31978;SDS011;18502;43.574;1.276;2023-08-20T07:42:51;9.93;;;4.38;;
31978;SDS011;18502;43.574;1.276;2023-08-20T07:45:16;10.52;;;5.43;;
31978;SDS011;18502;43.574;1.276;2023-08-20T07:47:42;8.40;;;5.10;;
31978;SDS011;18502;43.574;1.276;2023-08-20T07:50:08;12.35;;;4.82;;
31978;SDS011;18502;43.574;1.276;2023-08-20T07:52:34;13.10;;;5.30;;
31978;SDS011;18502;43.574;1.276;2023-08-20T07:54:59;9.52;;;4.85;;
31978;SDS011;18502;43.574;1.276;2023-08-20T07:57:25;15.80;;;5.70;;
31978;SDS011;18502;43.574;1.276;2023-08-20T07:59:51;13.15;;;5.60;;
31978;SDS011;18502;43.574;1.276;2023-08-20T08:02:17;9.38;;;5.53;;
31978;SDS011;18502;43.574;1.276;2023-08-20T08:04:43;11.02;;;5.15;;
31978;SDS011;18502;43.574;1.276;2023-08-20T08:07:09;10.05;;;5.05;;
31978;SDS011;18502;43.574;1.276;2023-08-20T08:09:36;9.63;;;5.78;;
31978;SDS011;18502;43.574;1.276;2023-08-20T08:12:02;8.38;;;5.10;;
31978;SDS011;18502;43.574;1.276;2023-08-20T08:14:30;9.50;;;5.60;;
31978;SDS011;18502;43.574;1.276;2023-08-20T08:16:55;10.48;;;5.30;;
31978;SDS011;18502;43.574;1.276;2023-08-20T08:19:22;11.32;;;5.25;;
31978;SDS011;18502;43.574;1.276;2023-08-20T08:21:47;12.02;;;5.10;;
31978;SDS011;18502;43.574;1.276;2023-08-20T08:24:14;15.13;;;5.57;;
31978;SDS011;18502;43.574;1.276;2023-08-20T08:26:40;12.88;;;5.78;;
31978;SDS011;18502;43.574;1.276;2023-08-20T08:29:06;14.15;;;5.75;;
31978;SDS011;18502;43.574;1.276;2023-08-20T08:31:33;11.10;;;4.95;;
31978;SDS011;18502;43.574;1.276;2023-08-20T08:33:59;11.10;;;5.05;;
31978;SDS011;18502;43.574;1.276;2023-08-20T08:36:25;8.38;;;4.55;;
31978;SDS011;18502;43.574;1.276;2023-08-20T08:38:51;11.10;;;4.93;;
31978;SDS011;18502;43.574;1.276;2023-08-20T08:41:17;9.25;;;4.95;;
31978;SDS011;18502;43.574;1.276;2023-08-20T08:43:46;9.38;;;5.10;;
31978;SDS011;18502;43.574;1.276;2023-08-20T08:46:13;12.05;;;4.97;;
31978;SDS011;18502;43.574;1.276;2023-08-20T08:48:40;12.50;;;5.70;;
31978;SDS011;18502;43.574;1.276;2023-08-20T08:51:07;11.68;;;4.80;;
31978;SDS011;18502;43.574;1.276;2023-08-20T08:53:33;8.40;;;4.78;;
31978;SDS011;18502;43.574;1.276;2023-08-20T08:56:00;10.43;;;5.05;;
31978;SDS011;18502;43.574;1.276;2023-08-20T08:58:26;7.32;;;5.10;;
31978;SDS011;18502;43.574;1.276;2023-08-20T09:00:52;10.30;;;4.88;;
31978;SDS011;18502;43.574;1.276;2023-08-20T09:03:18;9.93;;;4.90;;
31978;SDS011;18502;43.574;1.276;2023-08-20T09:05:50;12.07;;;5.63;;
31978;SDS011;18502;43.574;1.276;2023-08-20T09:08:20;9.30;;;5.78;;
31978;SDS011;18502;43.574;1.276;2023-08-20T09:10:49;12.10;;;5.90;;
31978;SDS011;18502;43.574;1.276;2023-08-20T09:13:16;11.02;;;5.47;;
31978;SDS011;18502;43.574;1.276;2023-08-20T09:15:42;16.70;;;5.63;;
31978;SDS011;18502;43.574;1.276;2023-08-20T09:18:10;13.50;;;4.93;;
31978;SDS011;18502;43.574;1.276;2023-08-20T09:20:36;10.45;;;5.28;;
31978;SDS011;18502;43.574;1.276;2023-08-20T09:23:02;8.85;;;5.25;;
31978;SDS011;18502;43.574;1.276;2023-08-20T09:25:29;8.43;;;4.65;;
31978;SDS011;18502;43.574;1.276;2023-08-20T09:27:58;10.98;;;5.82;;
31978;SDS011;18502;43.574;1.276;2023-08-20T09:30:28;9.50;;;4.90;;
31978;SDS011;18502;43.574;1.276;2023-08-20T09:33:03;7.65;;;5.00;;
31978;SDS011;18502;43.574;1.276;2023-08-20T09:35:30;12.23;;;5.40;;
31978;SDS011;18502;43.574;1.276;2023-08-20T09:38:05;14.15;;;5.65;;
31978;SDS011;18502;43.574;1.276;2023-08-20T09:40:30;11.57;;;5.60;;
31978;SDS011;18502;43.574;1.276;2023-08-20T09:42:57;10.65;;;5.65;;
31978;SDS011;18502;43.574;1.276;2023-08-20T09:45:27;15.85;;;5.10;;
31978;SDS011;18502;43.574;1.276;2023-08-20T09:47:57;9.57;;;5.15;;
31978;SDS011;18502;43.574;1.276;2023-08-20T09:50:24;8.73;;;5.03;;
31978;SDS011;18502;43.574;1.276;2023-08-20T09:53:00;14.40;;;5.15;;
31978;SDS011;18502;43.574;1.276;2023-08-20T09:55:33;10.63;;;5.22;;
31978;SDS011;18502;43.574;1.276;2023-08-20T09:58:03;8.05;;;5.20;;
31978;SDS011;18502;43.574;1.276;2023-08-20T10:00:30;14.40;;;5.20;;
31978;SDS011;18502;43.574;1.276;2023-08-20T10:02:57;12.30;;;4.93;;
31978;SDS011;18502;43.574;1.276;2023-08-20T10:05:23;11.93;;;5.60;;
31978;SDS011;18502;43.574;1.276;2023-08-20T10:07:49;13.38;;;5.30;;
31978;SDS011;18502;43.574;1.276;2023-08-20T10:10:16;13.75;;;5.68;;
31978;SDS011;18502;43.574;1.276;2023-08-20T10:12:42;10.98;;;4.57;;
31978;SDS011;18502;43.574;1.276;2023-08-20T10:15:10;12.27;;;5.00;;
31978;SDS011;18502;43.574;1.276;2023-08-20T10:17:39;9.10;;;4.80;;
31978;SDS011;18502;43.574;1.276;2023-08-20T10:20:07;15.18;;;5.53;;
31978;SDS011;18502;43.574;1.276;2023-08-20T10:22:36;12.27;;;4.90;;
31978;SDS011;18502;43.574;1.276;2023-08-20T10:25:05;11.93;;;5.05;;
31978;SDS011;18502;43.574;1.276;2023-08-20T10:27:36;13.77;;;5.20;;
31978;SDS011;18502;43.574;1.276;2023-08-20T10:30:09;10.88;;;5.00;;
31978;SDS011;18502;43.574;1.276;2023-08-20T10:32:56;8.98;;;4.97;;
31978;SDS011;18502;43.574;1.276;2023-08-20T10:35:27;9.00;;;4.75;;
31978;SDS011;18502;43.574;1.276;2023-08-20T10:48:38;10.80;;;4.65;;
31978;SDS011;18502;43.574;1.276;2023-08-20T10:51:11;8.68;;;4.57;;
31978;SDS011;18502;43.574;1.276;2023-08-20T10:53:39;9.90;;;5.03;;
31978;SDS011;18502;43.574;1.276;2023-08-20T10:56:07;11.27;;;5.13;;
31978;SDS011;18502;43.574;1.276;2023-08-20T10:58:46;11.18;;;4.60;;
31978;SDS011;18502;43.574;1.276;2023-08-20T11:01:19;11.30;;;4.85;;
31978;SDS011;18502;43.574;1.276;2023-08-20T11:03:48;8.93;;;4.50;;
31978;SDS011;18502;43.574;1.276;2023-08-20T11:06:16;9.65;;;4.63;;
31978;SDS011;18502;43.574;1.276;2023-08-20T11:08:43;8.55;;;4.35;;
31978;SDS011;18502;43.574;1.276;2023-08-20T11:11:10;10.05;;;4.75;;
31978;SDS011;18502;43.574;1.276;2023-08-20T11:13:36;11.88;;;4.68;;
31978;SDS011;18502;43.574;1.276;2023-08-20T11:16:02;5.72;;;3.78;;
31978;SDS011;18502;43.574;1.276;2023-08-20T11:18:32;11.05;;;5.20;;
31978;SDS011;18502;43.574;1.276;2023-08-20T11:23:24;6.95;;;4.20;;
31978;SDS011;18502;43.574;1.276;2023-08-20T11:25:50;10.90;;;4.70;;
31978;SDS011;18502;43.574;1.276;2023-08-20T11:28:16;7.32;;;4.28;;
31978;SDS011;18502;43.574;1.276;2023-08-20T11:30:42;14.80;;;3.97;;
31978;SDS011;18502;43.574;1.276;2023-08-20T11:33:08;9.93;;;4.13;;
31978;SDS011;18502;43.574;1.276;2023-08-20T11:35:34;8.65;;;3.65;;
31978;SDS011;18502;43.574;1.276;2023-08-20T11:38:00;9.48;;;4.00;;
31978;SDS011;18502;43.574;1.276;2023-08-20T11:40:29;15.65;;;4.65;;
31978;SDS011;18502;43.574;1.276;2023-08-20T11:42:54;9.60;;;4.85;;
31978;SDS011;18502;43.574;1.276;2023-08-20T11:45:20;7.57;;;4.25;;
31978;SDS011;18502;43.574;1.276;2023-08-20T11:47:46;8.65;;;4.05;;
31978;SDS011;18502;43.574;1.276;2023-08-20T11:50:11;7.93;;;4.07;;
31978;SDS011;18502;43.574;1.276;2023-08-20T11:52:37;10.25;;;4.53;;
31978;SDS011;18502;43.574;1.276;2023-08-20T11:55:06;8.15;;;4.93;;
31978;SDS011;18502;43.574;1.276;2023-08-20T11:57:33;8.80;;;4.18;;
31978;SDS011;18502;43.574;1.276;2023-08-20T12:00:04;11.73;;;4.10;;
31978;SDS011;18502;43.574;1.276;2023-08-20T12:02:36;8.60;;;4.10;;
31978;SDS011;18502;43.574;1.276;2023-08-20T12:05:01;9.18;;;3.35;;
31978;SDS011;18502;43.574;1.276;2023-08-20T12:07:28;8.25;;;4.10;;
31978;SDS011;18502;43.574;1.276;2023-08-20T12:09:54;11.82;;;3.72;;
31978;SDS011;18502;43.574;1.276;2023-08-20T12:12:20;11.70;;;4.72;;
31978;SDS011;18502;43.574;1.276;2023-08-20T12:14:47;11.57;;;4.20;;
31978;SDS011;18502;43.574;1.276;2023-08-20T12:17:16;9.40;;;3.97;;
31978;SDS011;18502;43.574;1.276;2023-08-20T12:19:43;5.72;;;4.13;;
31978;SDS011;18502;43.574;1.276;2023-08-20T12:22:09;10.07;;;4.10;;
31978;SDS011;18502;43.574;1.276;2023-08-20T12:24:35;9.45;;;3.90;;
31978;SDS011;18502;43.574;1.276;2023-08-20T12:27:00;7.43;;;4.10;;
31978;SDS011;18502;43.574;1.276;2023-08-20T12:29:27;9.55;;;4.18;;
31978;SDS011;18502;43.574;1.276;2023-08-20T12:31:53;9.90;;;4.00;;
31978;SDS011;18502;43.574;1.276;2023-08-20T12:34:19;12.48;;;3.88;;
31978;SDS011;18502;43.574;1.276;2023-08-20T12:36:46;8.17;;;4.07;;
31978;SDS011;18502;43.574;1.276;2023-08-20T12:39:12;7.50;;;4.05;;
31978;SDS011;18502;43.574;1.276;2023-08-20T12:41:39;6.18;;;3.55;;
31978;SDS011;18502;43.574;1.276;2023-08-20T12:44:04;7.25;;;3.75;;
31978;SDS011;18502;43.574;1.276;2023-08-20T12:46:30;6.20;;;3.90;;
31978;SDS011;18502;43.574;1.276;2023-08-20T12:48:56;10.32;;;3.78;;
31978;SDS011;18502;43.574;1.276;2023-08-20T12:51:22;7.72;;;3.80;;
31978;SDS011;18502;43.574;1.276;2023-08-20T12:53:47;5.65;;;3.33;;
31978;SDS011;18502;43.574;1.276;2023-08-20T12:56:13;10.10;;;3.95;;
31978;SDS011;18502;43.574;1.276;2023-08-20T12:58:41;8.15;;;4.13;;
31978;SDS011;18502;43.574;1.276;2023-08-20T13:01:06;5.88;;;3.78;;
31978;SDS011;18502;43.574;1.276;2023-08-20T13:03:32;10.52;;;3.92;;
31978;SDS011;18502;43.574;1.276;2023-08-20T13:05:58;9.30;;;3.67;;
31978;SDS011;18502;43.574;1.276;2023-08-20T13:08:24;6.15;;;4.18;;
31978;SDS011;18502;43.574;1.276;2023-08-20T13:10:53;9.32;;;3.30;;
31978;SDS011;18502;43.574;1.276;2023-08-20T13:13:20;7.60;;;4.28;;
31978;SDS011;18502;43.574;1.276;2023-08-20T13:15:47;7.07;;;3.70;;
31978;SDS011;18502;43.574;1.276;2023-08-20T13:18:13;8.38;;;4.10;;
31978;SDS011;18502;43.574;1.276;2023-08-20T13:20:40;11.38;;;4.80;;
31978;SDS011;18502;43.574;1.276;2023-08-20T13:23:07;9.15;;;3.67;;
31978;SDS011;18502;43.574;1.276;2023-08-20T13:25:32;5.85;;;3.20;;
31978;SDS011;18502;43.574;1.276;2023-08-20T13:27:58;8.40;;;3.85;;
31978;SDS011;18502;43.574;1.276;2023-08-20T13:30:24;9.52;;;3.95;;
31978;SDS011;18502;43.574;1.276;2023-08-20T13:32:49;5.78;;;3.88;;
31978;SDS011;18502;43.574;1.276;2023-08-20T13:35:15;8.45;;;3.80;;
31978;SDS011;18502;43.574;1.276;2023-08-20T13:37:41;9.25;;;3.78;;
31978;SDS011;18502;43.574;1.276;2023-08-20T13:40:07;12.48;;;4.25;;
31978;SDS011;18502;43.574;1.276;2023-08-20T13:42:34;5.10;;;3.38;;
31978;SDS011;18502;43.574;1.276;2023-08-20T13:45:00;9.10;;;3.55;;
31978;SDS011;18502;43.574;1.276;2023-08-20T13:47:26;7.88;;;3.35;;
31978;SDS011;18502;43.574;1.276;2023-08-20T13:49:51;7.93;;;4.03;;
31978;SDS011;18502;43.574;1.276;2023-08-20T13:52:17;6.25;;;3.42;;
31978;SDS011;18502;43.574;1.276;2023-08-20T13:54:43;7.70;;;3.30;;
31978;SDS011;18502;43.574;1.276;2023-08-20T13:57:09;8.98;;;3.50;;
31978;SDS011;18502;43.574;1.276;2023-08-20T13:59:35;6.43;;;3.63;;
31978;SDS011;18502;43.574;1.276;2023-08-20T14:02:00;8.45;;;3.55;;
31978;SDS011;18502;43.574;1.276;2023-08-20T14:04:26;7.50;;;3.20;;
31978;SDS011;18502;43.574;1.276;2023-08-20T14:06:52;6.63;;;3.50;;
31978;SDS011;18502;43.574;1.276;2023-08-20T14:09:18;7.00;;;3.42;;
31978;SDS011;18502;43.574;1.276;2023-08-20T14:11:44;7.20;;;3.45;;
31978;SDS011;18502;43.574;1.276;2023-08-20T14:14:10;5.55;;;4.03;;
31978;SDS011;18502;43.574;1.276;2023-08-20T14:16:36;5.38;;;3.40;;
31978;SDS011;18502;43.574;1.276;2023-08-20T14:19:02;7.60;;;3.65;;
31978;SDS011;18502;43.574;1.276;2023-08-20T14:21:27;5.40;;;3.72;;
31978;SDS011;18502;43.574;1.276;2023-08-20T14:23:53;8.48;;;3.42;;
31978;SDS011;18502;43.574;1.276;2023-08-20T14:26:19;5.65;;;4.00;;
31978;SDS011;18502;43.574;1.276;2023-08-20T14:28:44;5.63;;;3.53;;
31978;SDS011;18502;43.574;1.276;2023-08-20T14:31:10;8.23;;;3.65;;
31978;SDS011;18502;43.574;1.276;2023-08-20T14:33:36;8.98;;;3.90;;
31978;SDS011;18502;43.574;1.276;2023-08-20T14:36:01;6.50;;;3.30;;
31978;SDS011;18502;43.574;1.276;2023-08-20T14:38:28;6.30;;;3.75;;
31978;SDS011;18502;43.574;1.276;2023-08-20T14:40:58;5.57;;;3.60;;
31978;SDS011;18502;43.574;1.276;2023-08-20T14:43:27;7.68;;;3.30;;
31978;SDS011;18502;43.574;1.276;2023-08-20T14:45:54;6.57;;;3.80;;
31978;SDS011;18502;43.574;1.276;2023-08-20T14:48:20;6.40;;;3.53;;
31978;SDS011;18502;43.574;1.276;2023-08-20T14:50:47;6.72;;;3.13;;
31978;SDS011;18502;43.574;1.276;2023-08-20T14:53:13;10.25;;;3.30;;
31978;SDS011;18502;43.574;1.276;2023-08-20T14:55:39;4.93;;;3.10;;